createdAt,value
2018-06-12T00:00:28.145Z,97452.97
2018-06-12T00:02:58.761Z,97452.44
2018-06-12T00:06:12.057Z,97447.27
2018-06-12T00:08:42.179Z,97443.61
2018-06-12T00:11:12.263Z,97446.73
2018-06-12T00:13:42.594Z,97451.93
2018-06-12T00:16:12.585Z,97457.16
2018-06-12T00:18:42.623Z,97457.77
2018-06-12T00:21:18.127Z,97460.59
2018-06-12T00:23:49.780Z,97458.83
2018-06-12T00:26:28.881Z,97460.81
2018-06-12T00:28:59.535Z,97467.12
2018-06-12T00:31:31.012Z,97470.13
2018-06-12T00:34:01.210Z,97470.92
2018-06-12T00:36:31.476Z,97479.13
2018-06-12T00:39:01.503Z,97474.45
2018-06-12T00:41:31.483Z,97469.16
2018-06-12T00:44:01.917Z,97474.49
2018-06-12T00:46:33.104Z,97480.16
2018-06-12T00:49:03.271Z,97478.22
2018-06-12T00:51:34.112Z,97472.44
2018-06-12T00:56:59.829Z,97466.63
2018-06-12T00:59:29.877Z,97467.77
2018-06-12T01:02:01.148Z,97466.67
2018-06-12T01:04:31.180Z,97470.81
2018-06-12T01:07:01.865Z,97463.36
2018-06-12T01:09:31.688Z,97463.68
2018-06-12T01:12:01.656Z,97465.88
2018-06-12T01:14:31.762Z,97462.70
2018-06-12T01:17:01.484Z,97482.11
2018-06-12T01:19:31.326Z,97478.33
2018-06-12T01:22:01.119Z,97477.36
2018-06-12T01:24:32.205Z,97475.10
2018-06-12T01:27:01.963Z,97467.56
2018-06-12T01:29:31.774Z,97465.89
2018-06-12T01:32:02.484Z,97473.20
2018-06-12T01:34:36.164Z,97473.02
2018-06-12T01:37:07.265Z,97470.52
2018-06-12T01:39:37.246Z,97472.81
2018-06-12T01:42:14.999Z,97476.60
2018-06-12T01:44:44.876Z,97476.52
2018-06-12T01:47:14.972Z,97480.38
2018-06-12T01:49:45.458Z,97483.86
2018-06-12T01:52:16.222Z,97486.30
2018-06-12T01:54:46.695Z,97486.52
2018-06-12T01:57:18.242Z,97489.78
2018-06-12T01:59:48.336Z,97490.09
2018-06-12T02:02:18.213Z,97494.73
2018-06-12T02:04:48.151Z,97491.77
2018-06-12T02:07:18.480Z,97496.36
2018-06-12T02:09:48.259Z,97488.42
2018-06-12T02:12:17.996Z,97487.80
2018-06-12T02:14:47.698Z,97482.64
2018-06-12T02:17:17.830Z,97481.41
2018-06-12T02:19:47.688Z,97475.11
2018-06-12T02:22:18.080Z,97477.70
2018-06-12T02:27:42.426Z,97473.23
2018-06-12T02:30:12.303Z,97477.50
2018-06-12T02:32:42.328Z,97477.21
2018-06-12T02:38:00.325Z,97467.52
2018-06-12T02:40:30.093Z,97468.97
2018-06-12T02:43:00.074Z,97469.98
2018-06-12T02:45:30.680Z,97469.36
2018-06-12T02:48:00.445Z,97465.71
2018-06-12T02:50:30.268Z,97460.73
2018-06-12T02:53:01.485Z,97459.09
2018-06-12T02:55:31.175Z,97450.45
2018-06-12T02:58:01.289Z,97452.25
2018-06-12T03:00:31.072Z,97452.91
2018-06-12T03:03:00.884Z,97454.38
2018-06-12T03:05:30.798Z,97442.95
2018-06-12T03:08:05.245Z,97450.88
2018-06-12T03:10:35.083Z,97447.88
2018-06-12T03:13:05.042Z,97442.72
2018-06-12T03:15:34.775Z,97449.10
2018-06-12T03:18:05.925Z,97447.70
2018-06-12T03:20:42.187Z,97446.73
2018-06-12T03:23:11.979Z,97451.38
2018-06-12T03:25:42.314Z,97443.25
2018-06-12T03:28:12.093Z,97449.39
2018-06-12T03:30:42.407Z,97459.00
2018-06-12T03:33:12.554Z,97448.36
2018-06-12T03:35:42.775Z,97452.64
2018-06-12T03:38:12.576Z,97450.79
2018-06-12T03:40:42.460Z,97451.97
2018-06-12T03:43:12.194Z,97455.41
2018-06-12T03:45:41.908Z,97454.27
2018-06-12T03:48:15.825Z,97460.92
2018-06-12T03:50:45.596Z,97454.62
2018-06-12T03:53:15.441Z,97460.63
2018-06-12T03:55:45.206Z,97461.77
2018-06-12T03:58:14.930Z,97463.69
2018-06-12T04:00:44.618Z,97469.59
2018-06-12T04:03:15.710Z,97461.45
2018-06-12T04:05:45.669Z,97468.98
2018-06-12T04:08:15.571Z,97468.48
2018-06-12T04:10:45.457Z,97464.22
2018-06-12T04:13:16.589Z,97460.98
2018-06-12T04:15:46.373Z,97455.16
2018-06-12T04:18:16.269Z,97445.11
2018-06-12T04:20:47.809Z,97444.75
2018-06-12T04:23:19.355Z,97441.44
2018-06-12T04:25:49.389Z,97438.14
2018-06-12T04:28:19.368Z,97440.97
2018-06-12T04:30:50.662Z,97437.35
2018-06-12T04:33:21.797Z,97440.48
2018-06-12T04:35:51.548Z,97436.21
2018-06-12T04:38:21.422Z,97434.94
2018-06-12T04:40:52.092Z,97435.59
2018-06-12T04:43:28.440Z,97438.25
2018-06-12T04:45:58.641Z,97436.30
2018-06-12T04:48:28.381Z,97437.67
2018-06-12T04:50:59.496Z,97436.56
2018-06-12T04:53:29.289Z,97437.05
2018-06-12T04:56:00.348Z,97439.46
2018-06-12T04:58:30.560Z,97448.00
2018-06-12T05:01:00.476Z,97447.58
2018-06-12T05:03:31.794Z,97455.23
2018-06-12T05:06:05.245Z,97449.94
2018-06-12T05:08:35.215Z,97458.28
2018-06-12T05:14:15.822Z,97455.70
2018-06-12T05:16:45.978Z,97445.14
2018-06-12T05:19:16.401Z,97452.28
2018-06-12T05:21:46.560Z,97453.83
2018-06-12T05:24:19.168Z,97451.18
2018-06-12T05:26:48.948Z,97455.16
2018-06-12T05:29:18.937Z,97454.50
2018-06-12T05:31:54.446Z,97458.98
2018-06-12T05:34:24.592Z,97450.22
2018-06-12T05:36:54.491Z,97447.40
2018-06-12T05:39:24.605Z,97451.21
2018-06-12T05:41:54.543Z,97458.84
2018-06-12T05:44:24.505Z,97459.66
2018-06-12T05:46:58.447Z,97465.47
2018-06-12T05:49:29.893Z,97466.45
2018-06-12T05:51:59.777Z,97476.72
2018-06-12T05:54:30.986Z,97482.36
2018-06-12T05:57:11.231Z,97483.51
2018-06-12T05:59:48.081Z,97486.17
2018-06-12T06:02:27.020Z,97489.02
2018-06-12T06:04:59.089Z,97488.33
2018-06-12T06:07:29.284Z,97494.66
2018-06-12T06:10:04.742Z,97500.11
2018-06-12T06:12:38.429Z,97501.94
2018-06-12T06:15:08.757Z,97495.30
2018-06-12T06:17:38.707Z,97497.30
2018-06-12T06:20:11.272Z,97494.32
2018-06-12T06:22:41.095Z,97497.97
2018-06-12T06:25:11.794Z,97496.00
2018-06-12T06:27:41.992Z,97498.30
2018-06-12T06:30:12.098Z,97499.59
2018-06-12T06:32:42.047Z,97500.42
2018-06-12T06:35:13.638Z,97496.94
2018-06-12T06:37:43.465Z,97499.74
2018-06-12T06:40:13.543Z,97506.88
2018-06-12T06:42:45.280Z,97503.26
2018-06-12T06:45:17.381Z,97511.39
2018-06-12T06:47:47.826Z,97506.20
2018-06-12T06:50:17.841Z,97509.51
2018-06-12T06:52:47.926Z,97511.98
2018-06-12T06:55:18.201Z,97512.51
2018-06-12T06:57:48.482Z,97510.34
2018-06-12T07:00:18.792Z,97513.00
2018-06-12T07:02:48.767Z,97505.80
2018-06-12T07:05:18.751Z,97510.13
2018-06-12T07:07:48.721Z,97514.41
2018-06-12T07:10:18.811Z,97516.08
2018-06-12T07:12:48.966Z,97513.42
2018-06-12T07:15:18.881Z,97513.27
2018-06-12T07:17:49.920Z,97506.97
2018-06-12T07:21:29.778Z,97512.89
2018-06-12T07:23:59.783Z,97512.88
2018-06-12T07:26:29.576Z,97514.25
2018-06-12T07:28:59.305Z,97512.92
2018-06-12T07:31:33.138Z,97505.09
2018-06-12T07:34:02.862Z,97506.70
2018-06-12T07:36:32.872Z,97508.92
2018-06-12T07:39:02.972Z,97507.92
2018-06-12T07:41:32.713Z,97508.90
2018-06-12T07:44:02.601Z,97507.91
2018-06-12T07:46:35.960Z,97506.23
2018-06-12T07:49:05.809Z,97505.95
2018-06-12T07:51:35.548Z,97501.54
2018-06-12T07:54:05.537Z,97503.97
2018-06-12T07:56:35.305Z,97501.02
2018-06-12T07:59:04.957Z,97498.07
2018-06-12T08:01:42.041Z,97496.94
2018-06-12T08:04:13.639Z,97503.23
2018-06-12T08:06:43.402Z,97505.69
2018-06-12T08:09:14.528Z,97501.70
2018-06-12T08:11:44.491Z,97497.96
2018-06-12T08:14:14.192Z,97494.62
2018-06-12T08:16:44.190Z,97502.89
2018-06-12T08:19:14.009Z,97505.05
2018-06-12T08:21:43.785Z,97499.67
2018-06-12T08:24:13.753Z,97499.14
2018-06-12T08:26:43.476Z,97501.25
2018-06-12T08:29:13.192Z,97502.58
2018-06-12T08:31:43.305Z,97506.06
2018-06-12T08:34:13.013Z,97506.16
2018-06-12T08:36:42.769Z,97497.19
2018-06-12T08:39:12.764Z,97503.72
2018-06-12T08:41:42.456Z,97507.70
2018-06-12T08:44:12.163Z,97512.03
2018-06-12T08:46:43.266Z,97508.95
2018-06-12T08:49:13.074Z,97501.16
2018-06-12T08:51:42.849Z,97500.25
2018-06-12T08:54:18.142Z,97501.74
2018-06-12T08:56:56.274Z,97506.84
2018-06-12T08:59:26.271Z,97502.02
2018-06-12T09:01:56.376Z,97497.69
2018-06-12T09:04:26.289Z,97500.32
2018-06-12T09:06:56.554Z,97498.95
2018-06-12T09:09:26.325Z,97497.96
2018-06-12T09:11:56.475Z,97504.84
2018-06-12T09:14:28.508Z,97505.06
2018-06-12T09:16:58.359Z,97502.88
2018-06-12T09:19:28.232Z,97498.95
2018-06-12T09:21:58.225Z,97498.68
2018-06-12T09:24:28.200Z,97505.09
2018-06-12T09:26:57.962Z,97503.18
2018-06-12T09:29:34.315Z,97492.64
2018-06-12T09:32:04.029Z,97493.58
2018-06-12T09:34:35.152Z,97489.94
2018-06-12T09:37:06.284Z,97497.45
2018-06-12T09:39:35.985Z,97496.38
2018-06-12T09:42:05.855Z,97496.59
2018-06-12T09:44:35.811Z,97495.87
2018-06-12T09:47:05.581Z,97494.48
2018-06-12T09:52:04.229Z,97494.02
2018-06-12T09:54:34.109Z,97498.02
2018-06-12T09:57:03.985Z,97495.14
2018-06-12T09:59:34.137Z,97495.20
2018-06-12T10:02:03.920Z,97494.97
2018-06-12T10:04:33.653Z,97493.34
2018-06-12T10:07:04.761Z,97496.71
2018-06-12T10:09:34.512Z,97499.64
2018-06-12T10:12:04.611Z,97490.36
2018-06-12T10:14:34.732Z,97489.56
2018-06-12T10:17:15.608Z,97497.75
2018-06-12T10:19:45.744Z,97496.62
2018-06-12T10:22:15.867Z,97491.47
2018-06-12T10:24:46.419Z,97500.08
2018-06-12T10:27:18.562Z,97498.14
2018-06-12T10:29:48.234Z,97489.21
2018-06-12T10:32:18.022Z,97486.44
2018-06-12T10:34:48.096Z,97491.33
2018-06-12T10:37:18.105Z,97487.52
2018-06-12T10:39:48.145Z,97478.64
2018-06-12T10:42:18.191Z,97471.27
2018-06-12T10:44:48.033Z,97472.33
2018-06-12T10:47:17.820Z,97472.84
2018-06-12T10:49:47.996Z,97464.91
2018-06-12T10:52:17.882Z,97458.23
2018-06-12T10:54:47.679Z,97461.44
2018-06-12T10:57:19.891Z,97455.43
2018-06-12T10:59:49.740Z,97455.30
2018-06-12T11:02:19.620Z,97450.25
2018-06-12T11:04:51.029Z,97442.83
2018-06-12T11:07:20.962Z,97441.05
2018-06-12T11:09:50.796Z,97445.27
2018-06-12T11:12:21.041Z,97450.97
2018-06-12T11:14:50.779Z,97461.06
2018-06-12T11:17:20.625Z,97471.66
2018-06-12T11:19:50.682Z,97480.30
2018-06-12T11:22:20.792Z,97475.00
2018-06-12T11:24:50.616Z,97471.22
2018-06-12T11:27:20.671Z,97466.82
2018-06-12T11:29:50.538Z,97471.59
2018-06-12T11:32:20.599Z,97466.36
2018-06-12T11:34:55.823Z,97468.71
2018-06-12T11:37:25.938Z,97455.14
2018-06-12T11:39:55.750Z,97474.27
2018-06-12T11:42:25.973Z,97464.30
2018-06-12T11:44:55.695Z,97473.02
2018-06-12T11:47:25.688Z,97480.32
2018-06-12T11:49:55.764Z,97481.05
2018-06-12T11:52:25.642Z,97496.47
2018-06-12T11:54:55.344Z,97487.52
2018-06-12T11:57:26.502Z,97487.16
2018-06-12T11:59:56.480Z,97477.05
2018-06-12T12:02:26.740Z,97485.28
2018-06-12T12:04:56.750Z,97480.38
2018-06-12T12:07:26.844Z,97481.73
2018-06-12T12:09:57.089Z,97484.33
2018-06-12T12:12:27.264Z,97476.75
2018-06-12T12:14:57.026Z,97479.15
2018-06-12T12:17:27.362Z,97478.52
2018-06-12T12:19:57.527Z,97479.78
2018-06-12T12:22:27.689Z,97485.40
2018-06-12T12:24:58.390Z,97484.67
2018-06-12T12:27:28.621Z,97484.67
2018-06-12T12:30:01.582Z,97480.49
2018-06-12T12:32:31.792Z,97477.73
2018-06-12T12:35:02.200Z,97478.75
2018-06-12T12:37:33.568Z,97475.75
2018-06-12T12:40:06.232Z,97479.48
2018-06-12T12:42:36.213Z,97488.57
2018-06-12T12:45:06.679Z,97479.63
2018-06-12T12:47:37.534Z,97487.83
2018-06-12T12:50:07.460Z,97489.12
2018-06-12T12:52:37.427Z,97490.67
2018-06-12T12:55:08.199Z,97496.48
2018-06-12T12:57:38.377Z,97485.69
2018-06-12T13:00:08.405Z,97491.16
2018-06-12T13:02:38.965Z,97486.39
2018-06-12T13:05:08.721Z,97476.16
2018-06-12T13:07:38.712Z,97477.97
2018-06-12T13:10:08.889Z,97479.77
2018-06-12T13:12:38.999Z,97477.27
2018-06-12T13:15:13.490Z,97484.54
2018-06-12T13:17:48.332Z,97490.80
2018-06-12T13:22:53.658Z,97496.27
2018-06-12T13:25:23.830Z,97494.72
2018-06-12T13:27:54.161Z,97498.91
2018-06-12T13:34:01.014Z,97501.39
2018-06-12T13:36:31.980Z,97506.15
2018-06-12T13:39:08.459Z,97498.12
2018-06-12T13:41:58.563Z,97494.15
2018-06-12T13:44:28.528Z,97487.94
2018-06-12T13:46:58.527Z,97490.00
2018-06-12T13:49:28.739Z,97490.39
2018-06-12T13:51:59.280Z,97497.55
2018-06-12T13:54:43.162Z,97495.03
2018-06-12T13:57:13.613Z,97491.72
2018-06-12T13:59:43.664Z,97489.52
2018-06-12T14:02:16.170Z,97484.34
2018-06-12T14:05:07.177Z,97492.28
2018-06-12T14:07:37.966Z,97481.75
2018-06-12T14:10:08.734Z,97478.41
2018-06-12T14:12:38.851Z,97473.63
2018-06-12T14:15:09.217Z,97467.65
2018-06-12T14:17:41.340Z,97460.45
2018-06-12T14:20:16.744Z,97454.59
2018-06-12T14:22:47.408Z,97456.58
2018-06-12T14:25:19.780Z,97459.35
2018-06-12T14:27:53.278Z,97464.08
2018-06-12T14:30:31.990Z,97462.04
2018-06-12T14:33:09.807Z,97460.16
2018-06-12T14:35:48.748Z,97449.88
2018-06-12T14:38:28.666Z,97462.06
2018-06-12T14:41:01.083Z,97461.27
2018-06-12T14:43:33.733Z,97458.69
2018-06-12T14:46:04.228Z,97458.83
2018-06-12T14:48:35.439Z,97453.39
2018-06-12T14:51:06.164Z,97455.13
2018-06-12T14:53:38.474Z,97453.84
2018-06-12T14:56:10.210Z,97445.06
2018-06-12T14:58:42.425Z,97450.80
2018-06-12T15:01:13.141Z,97445.67
2018-06-12T15:03:44.504Z,97449.72
2018-06-12T15:09:12.804Z,97449.84
2018-06-12T15:11:43.041Z,97444.88
2018-06-12T15:14:13.146Z,97450.66
2018-06-12T15:16:46.919Z,97447.15
2018-06-12T15:19:18.059Z,97451.11
2018-06-12T15:25:31.008Z,97448.18
2018-06-12T15:28:02.592Z,97448.55
2018-06-12T15:30:34.148Z,97446.08
2018-06-12T15:33:14.131Z,97443.25
2018-06-12T15:38:43.189Z,97436.59
2018-06-12T15:41:17.574Z,97427.92
2018-06-12T15:43:59.095Z,97425.80
2018-06-12T15:46:29.625Z,97414.67
2018-06-12T15:49:01.825Z,97408.38
2018-06-12T15:51:32.053Z,97418.48
2018-06-12T15:54:02.369Z,97419.64
2018-06-12T15:56:33.097Z,97422.64
2018-06-12T15:59:03.912Z,97416.53
2018-06-12T16:01:34.216Z,97424.17
2018-06-12T16:04:04.301Z,97420.04
2018-06-12T16:06:34.787Z,97419.05
2018-06-12T16:09:09.094Z,97414.57
2018-06-12T16:11:45.544Z,97415.08
2018-06-12T16:14:15.866Z,97411.94
2018-06-12T16:16:46.186Z,97403.14
2018-06-12T16:19:16.387Z,97404.31
2018-06-12T16:21:46.917Z,97390.05
2018-06-12T16:24:17.084Z,97396.98
2018-06-12T16:26:47.202Z,97398.80
2018-06-12T16:29:17.536Z,97393.45
2018-06-12T16:35:19.724Z,97387.48
2018-06-12T16:41:13.190Z,97397.44
2018-06-12T16:43:43.423Z,97393.14
2018-06-12T16:46:14.099Z,97389.66
2018-06-12T16:48:56.951Z,97391.86
2018-06-12T16:51:28.592Z,97401.14
2018-06-12T16:54:06.014Z,97392.22
2018-06-12T16:56:43.271Z,97397.52
2018-06-12T16:59:14.467Z,97393.53
2018-06-12T17:01:58.070Z,97393.19
2018-06-12T17:54:26.247Z,97422.51
2018-06-12T17:56:56.419Z,97415.63
2018-06-12T17:59:31.369Z,97412.88
2018-06-12T18:02:03.360Z,97416.73
2018-06-12T18:04:34.490Z,97411.37
2018-06-12T18:07:13.417Z,97411.23
2018-06-12T18:09:48.753Z,97415.30
2018-06-12T18:12:18.884Z,97412.27
2018-06-12T18:14:48.954Z,97408.13
2018-06-12T18:21:46.240Z,97412.58
2018-06-12T18:27:13.027Z,97410.11
2018-06-12T18:29:47.180Z,97404.61
2018-06-12T18:32:18.955Z,97408.92
2018-06-12T18:34:49.189Z,97408.05
2018-06-12T18:37:19.865Z,97409.55
2018-06-12T18:39:55.900Z,97409.20
2018-06-12T18:42:29.104Z,97408.88
2018-06-12T18:54:16.142Z,97415.00
2018-06-12T18:56:53.662Z,97383.75
2018-06-12T18:59:24.072Z,97412.36
2018-06-12T19:02:31.370Z,97415.09
2018-06-12T19:05:09.875Z,97417.95
2018-06-12T19:07:53.321Z,97418.27
2018-06-12T19:11:01.112Z,97422.97
2018-06-12T19:13:37.420Z,97432.05
2018-06-12T19:16:07.773Z,97432.41
2018-06-12T19:27:49.123Z,97447.86
2018-06-12T19:30:23.548Z,97445.72
2018-06-12T19:32:59.741Z,97449.48
2018-06-12T19:35:30.688Z,97456.67
2018-06-12T19:38:06.016Z,97462.42
2018-06-12T19:40:36.352Z,97464.66
2018-06-12T19:43:06.286Z,97471.88
2018-06-12T19:45:36.706Z,97473.70
2018-06-12T19:48:29.044Z,97470.03
2018-06-12T19:51:08.169Z,97473.97
2018-06-12T19:53:43.580Z,97477.83
2018-06-12T19:56:21.255Z,97479.92
2018-06-12T19:58:51.816Z,97489.80
2018-06-12T20:01:22.471Z,97492.56
2018-06-12T20:07:56.457Z,97492.73
2018-06-12T20:10:27.746Z,97499.81
2018-06-12T20:12:58.902Z,97509.64
2018-06-12T20:15:30.000Z,97505.01
2018-06-12T20:18:00.323Z,97504.36
2018-06-12T20:20:39.651Z,97508.87
2018-06-12T20:24:38.014Z,97507.13
2018-06-12T20:27:08.717Z,97512.47
2018-06-12T20:29:39.428Z,97515.86
2018-06-12T20:32:10.650Z,97507.23
2018-06-12T20:34:46.000Z,97505.98
2018-06-12T20:39:54.568Z,97516.24
2018-06-12T20:42:26.105Z,97514.92
2018-06-12T20:44:57.990Z,97514.63
2018-06-12T20:47:33.644Z,97514.86
2018-06-12T20:51:31.609Z,97516.95
2018-06-12T21:02:43.705Z,97527.88
2018-06-12T21:05:33.201Z,97526.23
2018-06-12T21:08:18.553Z,97525.58
2018-06-12T21:13:59.955Z,97526.43
2018-06-12T21:16:30.150Z,97519.23
2018-06-12T21:22:47.893Z,97523.19
2018-06-12T21:25:18.029Z,97518.13
2018-06-12T21:27:48.019Z,97524.25
2018-06-12T21:30:19.189Z,97517.94
2018-06-12T21:32:49.794Z,97518.16
2018-06-12T21:35:20.028Z,97518.76
2018-06-12T21:37:49.855Z,97518.98
2018-06-12T21:40:19.775Z,97525.98
2018-06-12T21:43:15.170Z,97524.67
2018-06-12T21:45:45.113Z,97520.95
2018-06-12T21:48:15.966Z,97520.68
2018-06-12T21:50:45.946Z,97525.27
2018-06-12T21:53:35.712Z,97525.39
2018-06-12T21:56:14.948Z,97540.09
2018-06-12T21:58:46.707Z,97533.50
2018-06-12T22:01:18.418Z,97538.17
2018-06-12T22:03:49.642Z,97541.64
2018-06-12T22:06:19.743Z,97545.59
2018-06-12T22:08:51.145Z,97542.31
2018-06-12T22:11:21.177Z,97547.19
2018-06-12T22:13:51.023Z,97550.23
2018-06-12T22:16:23.178Z,97543.70
2018-06-12T22:18:53.995Z,97544.34
2018-06-12T22:21:23.933Z,97544.77
2018-06-12T22:23:54.484Z,97544.26
2018-06-12T22:26:24.656Z,97547.94
2018-06-12T22:29:29.897Z,97553.72
2018-06-12T22:32:00.106Z,97552.67
2018-06-12T22:34:31.269Z,97547.80
2018-06-12T22:37:07.491Z,97556.12
2018-06-12T22:39:37.525Z,97547.47
2018-06-12T22:42:07.316Z,97550.25
2018-06-12T22:44:37.163Z,97549.34
2018-06-12T22:47:06.994Z,97547.81
2018-06-12T22:49:36.897Z,97554.31
2018-06-12T22:52:20.672Z,97556.68
2018-06-12T22:54:50.499Z,97561.45
2018-06-12T22:57:20.396Z,97557.59
2018-06-12T22:59:50.684Z,97566.19
2018-06-12T23:02:25.068Z,97562.78
2018-06-12T23:04:55.040Z,97565.89
2018-06-12T23:07:25.129Z,97561.29
2018-06-12T23:09:54.965Z,97564.55
2018-06-12T23:12:25.073Z,97568.41
2018-06-12T23:14:54.864Z,97573.68
2018-06-12T23:17:25.246Z,97575.18
2018-06-12T23:20:06.326Z,97575.92
2018-06-12T23:22:36.315Z,97582.09
2018-06-12T23:25:06.205Z,97581.09
2018-06-12T23:27:38.751Z,97578.68
2018-06-12T23:30:08.863Z,97579.45
2018-06-12T23:32:39.868Z,97580.36
2018-06-12T23:35:09.591Z,97582.52
2018-06-12T23:37:43.953Z,97584.37
2018-06-12T23:40:13.828Z,97588.64
2018-06-12T23:46:09.530Z,97592.39
2018-06-12T23:48:39.816Z,97592.86
2018-06-12T23:51:10.267Z,97593.64
2018-06-12T23:53:42.857Z,97589.59
2018-06-12T23:56:13.266Z,97592.45
2018-06-12T23:58:44.518Z,97597.59
